Time;durP1;ratioP1;P1;durP2;ratioP2;P2;SDS_P1;SDS_P2;PMS_P1;PMS_P2;Temp;Humidity;BMP_temperature;BMP_pressure;BME280_temperature;BME280_humidity;BME280_pressure;Samples;Min_cycle;Max_cycle;Signal;HPM_P1;HPM_P2
2021/04/25 06:00:53;;;;;;;21.98;9.20;;;;;;;4.75;100.00;98323.56;5063233;28;20064;-80
2021/04/25 06:03:21;;;;;;;21.80;9.18;;;;;;;4.83;100.00;98320.38;5053250;28;20078;-78
2021/04/25 06:05:47;;;;;;;19.58;8.50;;;;;;;4.95;100.00;98327.16;5057095;28;20074;-77
2021/04/25 06:08:14;;;;;;;22.98;7.53;;;;;;;4.92;100.00;98330.38;5048546;28;20102;-78
2021/04/25 06:10:40;;;;;;;20.70;8.48;;;;;;;4.94;100.00;98330.09;5048279;28;20070;-77
2021/04/25 06:13:06;;;;;;;17.17;7.97;;;;;;;5.06;100.00;98338.72;5066427;28;20044;-78
2021/04/25 06:15:32;;;;;;;16.80;8.27;;;;;;;5.08;100.00;98333.91;5066736;28;20055;-78
2021/04/25 06:18:02;;;;;;;16.08;8.10;;;;;;;5.20;100.00;98323.75;5050736;28;20044;-77
2021/04/25 06:20:30;;;;;;;15.15;7.13;;;;;;;5.35;100.00;98325.69;5067291;28;20036;-77
2021/04/25 06:22:57;;;;;;;17.10;7.35;;;;;;;5.37;100.00;98326.22;5047561;28;20211;-78
2021/04/25 06:25:23;;;;;;;21.42;7.90;;;;;;;5.46;100.00;98330.00;5074330;28;20571;-78
2021/04/25 06:27:49;;;;;;;21.00;8.07;;;;;;;5.62;100.00;98328.97;5072096;28;20059;-77
2021/04/25 06:30:17;;;;;;;22.00;7.50;;;;;;;5.85;100.00;98330.38;5048371;28;20048;-78
2021/04/25 06:32:45;;;;;;;15.98;7.20;;;;;;;5.87;100.00;98338.97;5040022;28;20048;-79
2021/04/25 06:35:13;;;;;;;15.25;7.38;;;;;;;5.53;100.00;98333.25;5078238;28;20492;-77
2021/04/25 06:37:45;;;;;;;16.25;7.47;;;;;;;5.67;100.00;98337.03;5047342;28;20048;-77
2021/04/25 06:40:13;;;;;;;19.77;7.55;;;;;;;5.67;100.00;98337.03;5066147;28;20136;-76
2021/04/25 06:42:40;;;;;;;16.33;8.32;;;;;;;5.73;100.00;98337.88;5047920;28;20060;-77
2021/04/25 06:45:15;;;;;;;15.98;6.93;;;;;;;5.96;100.00;98348.94;5048368;28;20056;-77
2021/04/25 06:47:42;;;;;;;14.18;7.10;;;;;;;6.09;100.00;98345.72;5047764;28;20055;-77
2021/04/25 06:50:11;;;;;;;19.50;7.38;;;;;;;5.93;100.00;98330.66;5049820;28;20101;-76
2021/04/25 06:52:43;;;;;;;17.35;6.65;;;;;;;5.87;100.00;98339.78;5058732;28;20056;-76
2021/04/25 06:55:15;;;;;;;17.58;7.20;;;;;;;5.68;100.00;98341.31;5053407;28;20330;-77
2021/04/25 06:57:46;;;;;;;16.88;7.03;;;;;;;5.71;100.00;98338.13;5050124;28;20589;-76
2021/04/25 07:00:13;;;;;;;17.05;6.75;;;;;;;5.79;100.00;98337.59;5050436;28;20578;-76
2021/04/25 07:02:40;;;;;;;16.05;6.78;;;;;;;6.02;100.00;98347.88;5068547;28;20470;-76
2021/04/25 07:05:07;;;;;;;15.32;6.72;;;;;;;6.13;100.00;98346.81;5051534;28;20102;-76
2021/04/25 07:07:33;;;;;;;22.38;7.82;;;;;;;6.38;100.00;98343.28;5068190;28;20054;-77
2021/04/25 07:10:00;;;;;;;18.10;7.38;;;;;;;6.61;100.00;98344.59;5067045;28;20051;-76
2021/04/25 07:12:27;;;;;;;19.00;8.13;;;;;;;6.84;100.00;98352.91;5066727;28;20044;-76
2021/04/25 07:14:56;;;;;;;14.85;6.43;;;;;;;7.01;100.00;98354.47;5085093;28;20068;-76
2021/04/25 07:17:23;;;;;;;26.58;7.07;;;;;;;7.09;100.00;98343.97;5084423;28;20049;-76
2021/04/25 07:19:49;;;;;;;17.00;7.68;;;;;;;7.36;100.00;98348.94;5068052;28;20419;-76
2021/04/25 07:22:15;;;;;;;14.77;7.22;;;;;;;7.32;100.00;98353.28;5066995;28;20071;-76
2021/04/25 07:24:41;;;;;;;16.40;7.55;;;;;;;7.07;100.00;98331.84;5050223;28;20083;-76
2021/04/25 07:27:08;;;;;;;22.23;7.38;;;;;;;7.03;100.00;98352.31;5048893;28;20064;-76
2021/04/25 07:29:36;;;;;;;14.88;7.40;;;;;;;7.00;100.00;98340.19;5042231;28;20407;-77
2021/04/25 07:32:05;;;;;;;22.85;8.00;;;;;;;6.86;100.00;98356.13;5067433;28;20469;-77
2021/04/25 07:34:31;;;;;;;17.98;6.93;;;;;;;7.06;100.00;98347.19;5065726;28;20079;-76
2021/04/25 07:37:04;;;;;;;17.27;8.07;;;;;;;7.15;100.00;98348.22;5068664;28;20044;-76
2021/04/25 07:39:32;;;;;;;17.98;8.13;;;;;;;7.41;100.00;98352.44;5051250;28;20038;-77
2021/04/25 07:42:00;;;;;;;13.73;6.88;;;;;;;7.18;100.00;98353.06;5069210;28;20127;-77
2021/04/25 07:44:28;;;;;;;16.58;7.25;;;;;;;7.11;100.00;98351.75;5065913;28;20047;-76
2021/04/25 07:46:55;;;;;;;17.83;7.30;;;;;;;7.24;100.00;98353.84;5060409;28;20453;-76
2021/04/25 07:49:22;;;;;;;21.00;7.80;;;;;;;7.21;100.00;98359.78;5043298;28;20056;-77
2021/04/25 07:51:48;;;;;;;16.90;8.18;;;;;;;7.64;100.00;98363.66;5058591;28;20503;-77
2021/04/25 07:54:14;;;;;;;17.63;7.65;;;;;;;7.44;100.00;98365.34;5077536;28;20543;-77
2021/04/25 07:56:41;;;;;;;18.73;7.82;;;;;;;7.52;100.00;98359.38;5062162;28;20044;-77
2021/04/25 07:59:07;;;;;;;16.35;8.52;;;;;;;7.57;100.00;98355.03;5058796;28;20052;-76
2021/04/25 08:01:33;;;;;;;22.90;8.32;;;;;;;7.67;100.00;98363.06;5053871;28;20047;-76
2021/04/25 08:04:02;;;;;;;22.95;8.88;;;;;;;7.84;100.00;98361.63;5049155;28;20045;-76
2021/04/25 08:06:28;;;;;;;20.35;8.90;;;;;;;8.12;100.00;98358.22;5067193;28;20054;-77
2021/04/25 08:08:54;;;;;;;15.85;8.18;;;;;;;8.22;100.00;98353.81;5066157;28;20783;-76
2021/04/25 08:11:21;;;;;;;21.17;9.07;;;;;;;7.88;100.00;98370.75;5070536;28;20043;-76
2021/04/25 08:13:48;;;;;;;21.35;8.48;;;;;;;8.44;100.00;98362.31;5057981;28;20131;-76
2021/04/25 08:16:15;;;;;;;15.00;7.60;;;;;;;8.51;100.00;98376.28;5079002;28;20044;-76
2021/04/25 08:18:41;;;;;;;15.23;6.72;;;;;;;7.88;100.00;98365.38;5038880;28;20527;-76
2021/04/25 08:21:07;;;;;;;19.00;7.07;;;;;;;7.85;100.00;98376.72;5077303;28;20113;-77
2021/04/25 08:23:34;;;;;;;18.05;7.00;;;;;;;7.89;100.00;98369.69;5077030;28;20116;-76
2021/04/25 08:26:00;;;;;;;20.70;7.35;;;;;;;8.35;100.00;98364.00;5073733;28;20048;-75
2021/04/25 08:28:26;;;;;;;14.88;6.95;;;;;;;7.97;100.00;98371.81;5057260;28;20048;-76
2021/04/25 08:30:53;;;;;;;16.58;7.22;;;;;;;7.96;100.00;98374.75;5061624;28;20125;-77
2021/04/25 08:33:23;;;;;;;18.42;7.20;;;;;;;8.34;100.00;98386.66;5040362;28;20044;-77
2021/04/25 08:35:49;;;;;;;19.00;6.97;;;;;;;8.76;100.00;98384.13;5058116;28;20043;-77
2021/04/25 08:38:15;;;;;;;14.70;7.00;;;;;;;8.88;100.00;98373.75;5043193;28;20044;-77
2021/04/25 08:40:41;;;;;;;12.10;6.38;;;;;;;8.77;100.00;98383.84;5057864;28;20059;-76
2021/04/25 08:43:11;;;;;;;16.98;6.82;;;;;;;8.87;100.00;98380.25;5057898;28;20273;-77
2021/04/25 08:45:41;;;;;;;11.35;6.10;;;;;;;8.73;100.00;98379.28;5059809;28;20048;-77
2021/04/25 08:48:10;;;;;;;15.18;6.63;;;;;;;8.84;100.00;98382.72;5058712;28;20656;-77
2021/04/25 08:50:37;;;;;;;16.58;7.18;;;;;;;9.29;100.00;98383.00;5077874;28;20039;-77
2021/04/25 08:53:03;;;;;;;17.83;7.03;;;;;;;9.29;100.00;98385.72;5075785;28;20097;-77
2021/04/25 08:55:30;;;;;;;15.35;6.88;;;;;;;9.62;100.00;98375.06;5058989;28;20048;-77
2021/04/25 08:57:58;;;;;;;18.98;7.10;;;;;;;9.33;100.00;98388.66;5057178;28;20040;-75
2021/04/25 09:00:24;;;;;;;16.83;6.90;;;;;;;9.54;100.00;98370.31;5074605;28;20041;-77
2021/04/25 09:02:54;;;;;;;15.93;6.50;;;;;;;9.23;100.00;98380.69;5072899;28;20052;-76
2021/04/25 09:05:24;;;;;;;15.90;6.75;;;;;;;9.00;100.00;98381.47;5069477;28;20063;-77
2021/04/25 09:07:57;;;;;;;21.48;7.30;;;;;;;9.88;100.00;98379.81;5071506;28;20044;-76
2021/04/25 09:10:39;;;;;;;23.83;7.10;;;;;;;9.57;100.00;98375.94;5052902;28;20052;-76
2021/04/25 09:13:24;;;;;;;16.90;6.68;;;;;;;10.01;100.00;98379.09;5079144;28;20036;-76
2021/04/25 09:15:56;;;;;;;15.88;6.65;;;;;;;10.54;100.00;98376.16;5070778;28;20028;-77
2021/04/25 09:18:32;;;;;;;15.23;6.88;;;;;;;10.65;100.00;98372.19;5076048;28;20608;-77
2021/04/25 09:21:12;;;;;;;20.30;6.75;;;;;;;10.63;100.00;98379.81;5094939;28;20048;-78
2021/04/25 09:23:40;;;;;;;15.48;7.07;;;;;;;10.95;100.00;98377.03;5076546;28;20037;-77
2021/04/25 09:26:09;;;;;;;16.52;7.30;;;;;;;10.58;100.00;98374.47;5093707;28;20063;-77
2021/04/25 09:28:37;;;;;;;17.85;7.10;;;;;;;10.89;100.00;98369.31;5082724;28;20495;-78
2021/04/25 09:31:05;;;;;;;19.15;7.32;;;;;;;11.50;100.00;98364.31;5088992;28;20048;-76
2021/04/25 09:33:57;;;;;;;17.38;7.30;;;;;;;11.46;100.00;98378.78;5104569;28;20103;-77
2021/04/25 09:36:28;;;;;;;18.45;6.45;;;;;;;11.71;85.36;98364.72;5090992;28;20043;-75
2021/04/25 09:39:10;;;;;;;16.55;7.18;;;;;;;11.84;83.04;98353.88;5097170;28;20040;-77
2021/04/25 09:41:36;;;;;;;16.17;6.80;;;;;;;11.64;86.93;98362.38;5032485;28;20110;-77
2021/04/25 09:44:03;;;;;;;16.45;6.30;;;;;;;12.26;82.70;98362.69;5056232;28;20059;-77
2021/04/25 09:46:55;;;;;;;14.90;7.07;;;;;;;12.98;84.01;98364.06;5056760;28;20043;-77
2021/04/25 09:50:00;;;;;;;12.90;6.35;;;;;;;11.62;100.00;98366.50;5057421;28;20068;-77
2021/04/25 09:52:26;;;;;;;14.60;6.65;;;;;;;11.61;100.00;98359.50;5027200;28;20096;-76
2021/04/25 09:55:13;;;;;;;13.82;6.80;;;;;;;11.86;100.00;98361.69;5071883;28;20071;-77
2021/04/25 09:57:45;;;;;;;13.15;6.50;;;;;;;11.95;85.31;98367.19;5083205;28;20040;-76
2021/04/25 10:00:12;;;;;;;13.45;6.10;;;;;;;11.78;94.77;98351.53;5059353;28;20045;-76
2021/04/25 10:03:05;;;;;;;15.45;6.15;;;;;;;12.04;72.99;98363.44;5065580;28;20044;-77
2021/04/25 10:05:33;;;;;;;13.15;5.82;;;;;;;12.01;72.53;98361.34;5048572;28;20052;-76
2021/04/25 10:08:00;;;;;;;15.57;5.90;;;;;;;12.80;70.09;98358.88;5050956;28;20137;-76
2021/04/25 10:10:27;;;;;;;14.82;6.13;;;;;;;13.36;64.50;98363.63;5065930;28;20059;-76
2021/04/25 10:12:55;;;;;;;11.25;5.75;;;;;;;14.56;57.11;98359.13;5055734;28;20055;-75
2021/04/25 10:15:27;;;;;;;13.07;5.82;;;;;;;13.84;54.70;98364.41;5067127;28;20081;-76
2021/04/25 10:17:56;;;;;;;14.93;5.63;;;;;;;13.99;56.67;98361.19;5080106;28;20036;-76
2021/04/25 10:20:23;;;;;;;11.57;5.47;;;;;;;15.06;51.47;98369.47;5088483;28;20086;-76
2021/04/25 10:22:51;;;;;;;8.52;4.30;;;;;;;15.80;45.16;98362.38;5051200;28;20040;-76
2021/04/25 10:25:31;;;;;;;8.30;4.57;;;;;;;16.48;45.01;98358.34;5035610;28;20105;-74
2021/04/25 10:28:01;;;;;;;9.07;4.57;;;;;;;16.83;42.72;98359.63;5051812;28;20045;-74
2021/04/25 10:30:38;;;;;;;10.73;4.55;;;;;;;17.31;43.07;98358.13;5049964;28;20048;-78
2021/04/25 10:33:05;;;;;;;16.23;4.60;;;;;;;17.81;41.40;98355.84;5054303;28;20048;-77
2021/04/25 10:35:34;;;;;;;9.20;4.40;;;;;;;16.06;43.46;98354.00;5054698;28;20044;-77
2021/04/25 10:38:07;;;;;;;14.77;4.80;;;;;;;13.04;52.99;98359.31;5075043;28;20397;-76
2021/04/25 10:40:45;;;;;;;12.00;5.20;;;;;;;12.51;59.88;98353.91;5063924;28;20522;-77
2021/04/25 10:43:11;;;;;;;18.83;5.05;;;;;;;11.52;61.43;98339.59;5054411;28;20049;-77
2021/04/25 10:45:55;;;;;;;15.02;5.13;;;;;;;11.17;66.71;98350.06;5036060;28;20611;-77
2021/04/25 10:48:24;;;;;;;12.20;4.95;;;;;;;11.04;70.11;98342.75;5071624;28;20052;-77
2021/04/25 10:51:12;;;;;;;15.40;4.82;;;;;;;12.41;64.50;98341.34;5039745;28;20049;-78
2021/04/25 10:53:46;;;;;;;11.93;5.15;;;;;;;14.88;54.45;98344.97;5038062;28;20076;-78
2021/04/25 10:56:15;;;;;;;13.70;5.40;;;;;;;16.66;50.56;98342.59;5063558;28;20122;-77
2021/04/25 10:58:47;;;;;;;15.32;5.13;;;;;;;15.70;45.23;98356.50;5074973;28;20037;-78
2021/04/25 11:01:39;;;;;;;14.82;4.53;;;;;;;16.04;46.23;98354.38;5059616;28;20044;-77
2021/04/25 11:04:07;;;;;;;10.23;4.38;;;;;;;18.25;41.31;98345.81;5080509;28;20094;-77
2021/04/25 11:06:34;;;;;;;14.55;5.72;;;;;;;17.74;41.90;98350.16;5065403;28;20075;-78
2021/04/25 11:09:01;;;;;;;12.68;5.13;;;;;;;19.16;39.29;98349.53;5069599;28;20048;-79
2021/04/25 11:11:33;;;;;;;9.23;4.13;;;;;;;16.44;40.59;98340.22;5051688;28;20120;-78
2021/04/25 11:14:00;;;;;;;12.77;5.60;;;;;;;15.56;44.19;98343.13;5081848;28;20055;-78
2021/04/25 11:16:33;;;;;;;14.40;5.40;;;;;;;17.08;40.51;98349.56;5072126;28;20066;-77
2021/04/25 11:19:05;;;;;;;12.43;5.20;;;;;;;17.63;40.13;98342.75;5080765;28;20060;-77
2021/04/25 11:21:32;;;;;;;11.02;4.68;;;;;;;16.44;41.19;98348.41;5085430;28;20036;-77
2021/04/25 11:26:36;;;;;;;14.45;5.82;;;;;;;12.85;51.13;98347.88;5080023;28;20346;-78
2021/04/25 11:29:06;;;;;;;13.95;6.07;;;;;;;12.36;53.04;98338.00;5060462;28;20139;-77
2021/04/25 11:31:50;;;;;;;14.55;5.72;;;;;;;13.62;52.61;98338.13;5071354;28;20045;-77
2021/04/25 11:34:22;;;;;;;13.20;5.72;;;;;;;14.84;49.87;98348.69;5069689;28;20120;-79
2021/04/25 11:36:49;;;;;;;14.18;5.75;;;;;;;14.49;47.96;98349.84;5070953;28;20037;-78
2021/04/25 11:39:17;;;;;;;17.25;6.03;;;;;;;13.89;51.99;98338.94;5070092;28;20045;-76
2021/04/25 11:41:45;;;;;;;10.70;5.70;;;;;;;13.15;52.85;98349.81;5069321;28;20044;-78
2021/04/25 11:44:11;;;;;;;13.30;5.88;;;;;;;13.66;53.02;98341.78;5067644;28;20055;-77
2021/04/25 11:46:37;;;;;;;12.35;5.32;;;;;;;13.73;51.62;98335.88;5069622;28;20541;-77
2021/04/25 11:49:06;;;;;;;11.07;5.30;;;;;;;14.57;48.21;98346.31;5052250;28;20155;-78
2021/04/25 11:51:32;;;;;;;9.35;5.18;;;;;;;15.47;44.50;98350.53;5070063;28;20346;-78
2021/04/25 11:53:58;;;;;;;12.52;4.72;;;;;;;14.12;47.04;98352.09;5099260;28;20044;-78
2021/04/25 11:56:28;;;;;;;10.20;4.38;;;;;;;12.76;50.79;98342.38;5041111;28;20063;-77
2021/04/25 11:59:10;;;;;;;9.77;4.78;;;;;;;12.21;51.08;98347.28;5068199;28;20102;-77
2021/04/25 12:01:38;;;;;;;11.52;5.07;;;;;;;12.64;50.11;98347.59;5051585;28;20049;-78
2021/04/25 12:04:04;;;;;;;12.45;5.20;;;;;;;13.34;50.50;98344.94;5069406;28;20052;-77
2021/04/25 12:06:50;;;;;;;11.43;4.47;;;;;;;13.66;45.70;98330.09;5084518;28;20037;-78
2021/04/25 12:09:16;;;;;;;12.33;5.77;;;;;;;13.72;46.91;98337.00;5069588;28;20052;-78
2021/04/25 12:11:43;;;;;;;11.75;4.65;;;;;;;15.44;44.51;98329.34;5051745;28;20314;-79
2021/04/25 12:14:17;;;;;;;10.05;4.93;;;;;;;13.66;49.31;98343.72;5067803;28;20056;-78
2021/04/25 12:16:44;;;;;;;11.15;4.78;;;;;;;12.85;50.45;98354.09;5068643;28;20078;-78
2021/04/25 12:19:26;;;;;;;13.98;5.32;;;;;;;12.28;52.28;98341.44;5068007;28;20106;-77
2021/04/25 12:21:58;;;;;;;12.70;4.50;;;;;;;14.33;50.97;98347.63;5069302;28;20112;-77
2021/04/25 12:24:24;;;;;;;13.57;4.90;;;;;;;15.79;47.15;98358.06;5067927;28;20048;-77
2021/04/25 12:26:54;;;;;;;16.98;5.13;;;;;;;14.94;47.02;98354.56;5070946;28;20053;-78
2021/04/25 12:29:36;;;;;;;11.43;5.07;;;;;;;13.03;49.42;98352.28;5053598;28;20048;-78
2021/04/25 12:32:05;;;;;;;13.32;5.57;;;;;;;12.60;52.29;98356.66;5051275;28;20076;-77
2021/04/25 12:34:32;;;;;;;14.00;5.43;;;;;;;12.07;53.78;98354.69;5067839;28;20060;-78
2021/04/25 12:37:01;;;;;;;11.68;5.05;;;;;;;11.84;55.91;98356.56;5070763;28;20063;-78
2021/04/25 12:39:40;;;;;;;11.70;4.88;;;;;;;11.71;58.91;98359.31;5069839;28;20048;-78
2021/04/25 12:42:20;;;;;;;11.98;5.10;;;;;;;11.37;60.12;98356.19;5051141;28;20052;-77
2021/04/25 12:47:30;;;;;;;10.75;5.22;;;;;;;13.08;51.78;98358.41;5054404;28;20499;-79
2021/04/25 12:50:11;;;;;;;11.10;4.72;;;;;;;14.84;48.09;98354.91;5033798;28;20518;-80
2021/04/25 12:52:40;;;;;;;13.55;4.88;;;;;;;16.19;45.49;98359.22;5031418;28;20049;-79
2021/04/25 12:55:07;;;;;;;14.68;5.00;;;;;;;16.46;42.80;98352.41;5053619;28;20048;-79
2021/04/25 12:57:33;;;;;;;10.40;4.55;;;;;;;16.52;41.58;98355.72;5070664;28;20097;-78
2021/04/25 12:59:59;;;;;;;11.23;4.78;;;;;;;15.77;41.33;98348.63;5068765;28;20040;-79
2021/04/25 13:02:33;;;;;;;12.02;5.25;;;;;;;16.45;42.89;98358.19;5033976;28;20059;-79
2021/04/25 13:05:05;;;;;;;11.07;4.95;;;;;;;17.42;41.44;98345.59;5068755;28;20059;-77
2021/04/25 13:07:39;;;;;;;10.40;4.70;;;;;;;15.50;43.97;98352.63;5069164;28;20065;-77
2021/04/25 13:10:11;;;;;;;14.05;5.32;;;;;;;14.63;45.44;98348.56;5069456;28;20063;-76
2021/04/25 13:12:39;;;;;;;14.07;5.07;;;;;;;15.80;44.26;98351.47;5049557;28;20415;-76
2021/04/25 13:15:33;;;;;;;9.90;4.68;;;;;;;17.64;41.98;98336.94;5067979;28;20057;-78
2021/04/25 13:18:06;;;;;;;9.75;4.43;;;;;;;17.35;39.95;98345.34;5022902;28;20053;-77
2021/04/25 13:20:48;;;;;;;13.32;4.50;;;;;;;16.75;39.09;98346.03;5049902;28;20041;-79
2021/04/25 13:23:15;;;;;;;9.65;4.22;;;;;;;16.45;40.23;98341.81;5048206;28;20132;-79
2021/04/25 13:25:54;;;;;;;9.30;4.32;;;;;;;16.63;41.01;98343.25;5049445;28;20068;-78
2021/04/25 13:28:22;;;;;;;11.40;4.57;;;;;;;17.61;39.23;98345.03;5070361;28;20052;-78
2021/04/25 13:30:51;;;;;;;11.73;4.28;;;;;;;17.55;40.05;98341.72;5067840;28;20089;-78
2021/04/25 13:33:23;;;;;;;11.40;4.63;;;;;;;16.13;40.65;98352.34;5068423;28;20051;-78
2021/04/25 13:35:50;;;;;;;11.63;4.32;;;;;;;16.88;40.81;98350.41;5067417;28;20719;-78
2021/04/25 13:38:18;;;;;;;11.63;4.25;;;;;;;15.76;40.72;98361.47;5048395;28;20082;-77
2021/04/25 13:40:51;;;;;;;9.88;4.30;;;;;;;16.83;40.62;98354.16;5047727;28;20051;-79
2021/04/25 13:43:17;;;;;;;8.75;4.05;;;;;;;14.69;42.83;98341.81;5068055;28;20066;-76
2021/04/25 13:45:43;;;;;;;7.40;4.07;;;;;;;16.54;40.15;98337.88;5049243;28;20108;-78
2021/04/25 13:48:11;;;;;;;12.32;4.10;;;;;;;18.14;37.61;98347.47;5049069;28;20403;-77
2021/04/25 13:50:37;;;;;;;11.52;3.97;;;;;;;18.64;37.67;98342.28;5049997;28;20055;-79
2021/04/25 13:53:03;;;;;;;9.48;4.07;;;;;;;18.21;37.23;98338.66;5067875;28;20052;-79
2021/04/25 13:55:30;;;;;;;9.10;3.90;;;;;;;17.88;36.68;98334.19;5052509;28;20293;-76
2021/04/25 13:57:56;;;;;;;9.52;4.50;;;;;;;17.20;37.83;98330.41;5047520;28;20053;-79
2021/04/25 14:00:26;;;;;;;7.57;4.07;;;;;;;17.28;37.23;98334.97;5070739;28;20052;-78
2021/04/25 14:02:52;;;;;;;11.57;3.78;;;;;;;15.84;39.77;98327.84;5076275;28;20048;-79
2021/04/25 14:05:20;;;;;;;7.72;3.53;;;;;;;13.27;44.01;98322.81;5076728;28;20056;-78
2021/04/25 14:07:49;;;;;;;14.02;4.30;;;;;;;12.57;45.02;98327.44;5073768;28;20135;-76
2021/04/25 14:10:20;;;;;;;11.70;4.15;;;;;;;15.62;42.13;98314.50;5074970;28;20202;-78
2021/04/25 14:12:47;;;;;;;9.25;3.75;;;;;;;16.33;38.75;98317.97;5073615;28;20048;-78
2021/04/25 14:15:18;;;;;;;7.85;3.58;;;;;;;17.96;37.12;98310.53;5075783;28;20048;-80
2021/04/25 14:17:45;;;;;;;10.52;4.05;;;;;;;16.69;37.17;98304.44;5057330;28;20044;-80
2021/04/25 14:20:12;;;;;;;7.57;3.70;;;;;;;16.85;36.61;98310.06;5075610;28;20036;-80
2021/04/25 14:22:39;;;;;;;7.95;3.63;;;;;;;16.74;36.16;98306.97;5073790;28;20070;-78
2021/04/25 14:25:14;;;;;;;10.95;3.80;;;;;;;17.39;35.84;98308.72;5074425;28;20044;-78
2021/04/25 14:27:46;;;;;;;10.65;3.88;;;;;;;19.15;34.00;98315.00;5074880;28;20040;-78
2021/04/25 14:30:14;;;;;;;12.43;4.10;;;;;;;19.11;32.43;98317.66;5073529;28;20496;-80
2021/04/25 14:32:40;;;;;;;12.52;3.67;;;;;;;18.91;32.05;98295.97;5075182;28;20067;-80
2021/04/25 14:35:09;;;;;;;9.32;3.90;;;;;;;17.91;33.24;98300.59;5073936;28;20099;-80
2021/04/25 14:37:35;;;;;;;7.40;3.80;;;;;;;18.30;33.04;98311.91;5075048;28;20098;-80
2021/04/25 14:40:04;;;;;;;11.80;3.08;;;;;;;19.27;32.99;98310.22;5058626;28;20128;-79
2021/04/25 14:42:30;;;;;;;7.55;3.60;;;;;;;18.33;33.55;98309.25;5074872;28;20059;-79
2021/04/25 14:44:56;;;;;;;13.00;4.28;;;;;;;18.06;33.96;98304.56;5076632;28;20040;-80
2021/04/25 14:47:22;;;;;;;8.90;3.40;;;;;;;18.29;33.18;98305.63;5075044;28;20048;-80
2021/04/25 14:49:49;;;;;;;8.63;3.67;;;;;;;18.18;33.36;98300.97;5075822;28;20251;-80
2021/04/25 14:52:15;;;;;;;8.15;3.30;;;;;;;15.52;36.00;98298.50;5073703;28;20420;-79
2021/04/25 14:54:41;;;;;;;9.20;3.72;;;;;;;16.46;36.42;98307.88;5074518;28;20041;-79
2021/04/25 14:57:07;;;;;;;14.65;4.00;;;;;;;15.97;37.41;98299.47;5072287;28;20041;-79
2021/04/25 14:59:33;;;;;;;8.23;3.85;;;;;;;16.54;36.27;98296.88;5074177;28;20049;-80
2021/04/25 15:02:00;;;;;;;9.68;3.40;;;;;;;15.43;36.25;98300.47;5074724;28;20064;-79
2021/04/25 15:04:26;;;;;;;6.82;2.90;;;;;;;16.15;36.23;98300.94;5074988;28;20079;-79
2021/04/25 15:06:52;;;;;;;8.27;3.08;;;;;;;17.33;34.72;98301.91;5076164;28;20052;-79
2021/04/25 15:09:18;;;;;;;8.48;3.33;;;;;;;16.98;33.79;98316.34;5073575;28;20068;-79
2021/04/25 15:11:44;;;;;;;7.95;3.40;;;;;;;15.91;36.96;98311.72;5073907;28;20056;-79
2021/04/25 15:14:10;;;;;;;10.63;3.78;;;;;;;15.42;36.67;98307.84;5075334;28;20052;-79
2021/04/25 15:16:37;;;;;;;10.45;3.90;;;;;;;16.54;36.62;98305.06;5074405;28;20044;-79
2021/04/25 15:19:03;;;;;;;10.00;3.20;;;;;;;16.90;35.88;98318.06;5076104;28;20047;-79
2021/04/25 15:21:29;;;;;;;8.13;3.50;;;;;;;16.54;35.78;98315.22;5078351;28;20063;-79
2021/04/25 15:23:56;;;;;;;10.80;3.50;;;;;;;15.60;36.64;98311.28;5085511;28;20060;-77
2021/04/25 15:26:22;;;;;;;9.80;3.47;;;;;;;15.22;38.77;98329.63;5084299;28;20056;-79
2021/04/25 15:28:49;;;;;;;11.05;3.55;;;;;;;15.70;38.44;98310.09;5085595;28;20108;-79
2021/04/25 15:31:15;;;;;;;10.00;3.10;;;;;;;15.97;37.69;98309.59;5049249;28;20053;-78
2021/04/25 15:33:42;;;;;;;9.43;3.67;;;;;;;15.58;37.94;98319.03;5080202;28;20162;-79
2021/04/25 15:36:08;;;;;;;12.23;3.25;;;;;;;15.39;37.95;98307.69;5075343;28;20122;-80
2021/04/25 15:38:34;;;;;;;11.23;3.28;;;;;;;14.29;40.26;98319.41;5074797;28;20048;-79
2021/04/25 15:41:00;;;;;;;9.55;3.47;;;;;;;14.99;39.25;98318.94;5072876;28;20133;-79
2021/04/25 15:43:26;;;;;;;11.40;3.15;;;;;;;14.52;37.36;98314.59;5075004;28;20048;-78
2021/04/25 15:45:54;;;;;;;7.57;3.30;;;;;;;15.16;36.65;98311.81;5083611;28;20041;-78
2021/04/25 15:48:21;;;;;;;11.23;3.30;;;;;;;15.83;37.12;98322.69;5063255;28;20055;-77
2021/04/25 15:50:49;;;;;;;7.38;2.75;;;;;;;16.08;36.29;98324.44;5084176;28;20503;-77
2021/04/25 15:53:18;;;;;;;11.45;3.08;;;;;;;16.03;36.61;98319.97;5084310;28;20176;-78
2021/04/25 15:55:46;;;;;;;12.45;3.20;;;;;;;15.97;36.05;98325.97;5051601;28;20040;-76
2021/04/25 15:58:15;;;;;;;6.55;2.75;;;;;;;14.91;35.64;98316.25;5081022;28;20048;-76
2021/04/25 16:00:43;;;;;;;9.77;2.95;;;;;;;14.43;37.45;98334.81;5077092;28;20042;-77
2021/04/25 16:03:11;;;;;;;8.80;3.15;;;;;;;13.37;38.72;98330.66;5078340;28;20041;-77
2021/04/25 16:05:40;;;;;;;7.35;3.00;;;;;;;11.71;41.18;98332.19;5076660;28;20411;-77
2021/04/25 16:08:06;;;;;;;7.78;3.00;;;;;;;10.43;43.90;98339.50;5076194;28;20106;-79
2021/04/25 16:10:40;;;;;;;13.13;3.58;;;;;;;10.10;45.36;98337.84;5074786;28;20040;-78
2021/04/25 16:13:09;;;;;;;9.13;3.42;;;;;;;11.39;43.13;98326.88;5054985;28;20044;-78
2021/04/25 16:15:43;;;;;;;9.98;3.20;;;;;;;13.06;39.73;98322.56;5072316;28;20396;-78
2021/04/25 16:18:10;;;;;;;7.78;2.67;;;;;;;14.11;37.69;98327.91;5072566;28;20044;-79
2021/04/25 16:20:39;;;;;;;8.23;2.67;;;;;;;14.07;38.23;98335.09;5074374;28;20039;-78
2021/04/25 16:23:06;;;;;;;8.48;3.03;;;;;;;14.22;39.05;98324.53;5074122;28;20040;-78
2021/04/25 16:25:32;;;;;;;5.82;2.40;;;;;;;14.31;37.06;98325.38;5071520;28;20055;-78
2021/04/25 16:27:59;;;;;;;6.55;2.50;;;;;;;14.36;37.69;98338.00;5071468;28;20044;-77
2021/04/25 16:30:26;;;;;;;8.80;2.50;;;;;;;14.38;37.92;98324.06;5074410;28;20036;-78
2021/04/25 16:32:53;;;;;;;6.63;2.80;;;;;;;14.41;38.39;98335.13;5043706;28;20230;-78
2021/04/25 16:35:23;;;;;;;6.07;2.50;;;;;;;13.75;39.14;98329.00;5079154;28;20064;-79
2021/04/25 16:37:49;;;;;;;8.07;2.30;;;;;;;13.33;39.53;98343.31;5082069;28;20041;-80
2021/04/25 16:40:17;;;;;;;5.53;2.08;;;;;;;12.96;39.51;98339.13;5063522;28;20521;-80
2021/04/25 16:42:48;;;;;;;5.25;1.98;;;;;;;12.83;39.78;98339.22;5062644;28;20056;-79
2021/04/25 16:45:16;;;;;;;9.18;2.17;;;;;;;12.22;40.77;98346.19;5082065;28;20055;-78
2021/04/25 16:47:43;;;;;;;7.38;2.50;;;;;;;12.22;40.40;98345.38;5080059;28;20415;-79
2021/04/25 16:50:10;;;;;;;10.50;2.35;;;;;;;12.00;41.24;98350.81;5062000;28;20048;-79
2021/04/25 16:52:38;;;;;;;11.20;3.05;;;;;;;11.87;47.19;98352.44;5048569;28;20062;-80
2021/04/25 16:55:07;;;;;;;13.00;3.53;;;;;;;11.77;52.02;98347.22;5084377;28;20062;-78
2021/04/25 16:57:33;;;;;;;8.57;3.40;;;;;;;11.94;54.69;98363.69;5046944;28;20044;-78
2021/04/25 17:00:01;;;;;;;10.70;3.25;;;;;;;11.22;63.22;98370.84;5081823;28;20067;-78
2021/04/25 17:02:27;;;;;;;12.77;3.70;;;;;;;10.77;73.12;98358.16;5081306;28;20044;-78
2021/04/25 17:04:53;;;;;;;7.63;3.72;;;;;;;10.43;87.73;98372.81;5080729;28;20122;-78
2021/04/25 17:07:21;;;;;;;11.40;3.50;;;;;;;10.37;95.10;98371.28;5072303;28;20045;-78
2021/04/25 17:09:47;;;;;;;11.57;3.50;;;;;;;10.01;100.00;98372.91;5072542;28;20049;-79
2021/04/25 17:12:14;;;;;;;14.75;4.07;;;;;;;9.72;100.00;98362.22;5073538;28;20044;-80
2021/04/25 17:14:40;;;;;;;8.95;3.70;;;;;;;9.51;100.00;98360.88;5075509;28;20068;-78
2021/04/25 17:17:06;;;;;;;12.23;3.53;;;;;;;9.55;100.00;98350.28;5074638;28;20049;-77
2021/04/25 17:19:32;;;;;;;10.80;3.90;;;;;;;9.38;100.00;98353.47;5070685;28;20060;-78
2021/04/25 17:21:59;;;;;;;10.68;3.90;;;;;;;9.41;100.00;98363.72;5066564;28;20049;-78
2021/04/25 17:24:25;;;;;;;9.45;3.90;;;;;;;9.34;100.00;98372.16;5063589;28;20749;-81
2021/04/25 17:26:52;;;;;;;10.35;3.97;;;;;;;9.23;100.00;98367.16;5054046;28;20073;-79
2021/04/25 17:29:18;;;;;;;11.63;3.75;;;;;;;8.98;100.00;98367.47;5051401;28;20040;-80
2021/04/25 17:31:44;;;;;;;10.88;3.75;;;;;;;8.85;100.00;98360.03;5069582;28;20044;-78
2021/04/25 17:34:11;;;;;;;14.15;4.28;;;;;;;8.47;100.00;98375.22;5069222;28;20049;-79
2021/04/25 17:36:37;;;;;;;11.13;4.07;;;;;;;8.33;100.00;98375.06;5069232;28;20041;-79
2021/04/25 17:39:04;;;;;;;11.25;4.35;;;;;;;8.18;100.00;98371.66;5070896;28;20137;-80
2021/04/25 17:41:30;;;;;;;10.88;4.22;;;;;;;7.95;100.00;98371.25;5052796;28;20067;-80